sensor_id;sensor_type;location;lat;lon;timestamp;P1;durP1;ratioP1;P2;durP2;ratioP2
80510;SDS011;69840;53.040;8.600;2023-10-13T00:06:18;27.15;;;10.38;;
80510;SDS011;69840;53.040;8.600;2023-10-13T00:31:24;23.25;;;8.82;;
80510;SDS011;69840;53.040;8.600;2023-10-13T00:56:31;28.38;;;11.15;;
80510;SDS011;69840;53.040;8.600;2023-10-13T01:21:37;31.00;;;11.90;;
80510;SDS011;69840;53.040;8.600;2023-10-13T02:36:59;32.00;;;13.77;;
80510;SDS011;69840;53.040;8.600;2023-10-13T03:02:04;32.95;;;13.68;;
80510;SDS011;69840;53.040;8.600;2023-10-13T03:27:23;26.33;;;14.27;;
80510;SDS011;69840;53.040;8.600;2023-10-13T03:52:29;29.65;;;13.20;;
80510;SDS011;69840;53.040;8.600;2023-10-13T04:17:41;32.47;;;12.27;;
80510;SDS011;69840;53.040;8.600;2023-10-13T04:42:50;28.40;;;11.32;;
80510;SDS011;69840;53.040;8.600;2023-10-13T05:07:59;26.67;;;11.68;;
80510;SDS011;69840;53.040;8.600;2023-10-13T05:33:44;26.98;;;10.50;;
80510;SDS011;69840;53.040;8.600;2023-10-13T05:59:08;22.20;;;11.07;;
80510;SDS011;69840;53.040;8.600;2023-10-13T06:24:32;22.90;;;11.18;;
80510;SDS011;69840;53.040;8.600;2023-10-13T06:49:56;25.98;;;11.38;;
80510;SDS011;69840;53.040;8.600;2023-10-13T07:15:03;25.60;;;13.73;;
80510;SDS011;69840;53.040;8.600;2023-10-13T07:40:30;20.75;;;9.75;;
80510;SDS011;69840;53.040;8.600;2023-10-13T08:05:35;16.17;;;8.85;;
80510;SDS011;69840;53.040;8.600;2023-10-13T08:31:05;9.70;;;5.57;;
80510;SDS011;69840;53.040;8.600;2023-10-13T08:56:27;7.55;;;3.97;;
80510;SDS011;69840;53.040;8.600;2023-10-13T09:21:40;12.80;;;4.75;;
80510;SDS011;69840;53.040;8.600;2023-10-13T09:46:46;10.77;;;4.65;;
80510;SDS011;69840;53.040;8.600;2023-10-13T10:12:12;8.38;;;3.70;;
80510;SDS011;69840;53.040;8.600;2023-10-13T10:37:30;10.35;;;4.28;;
80510;SDS011;69840;53.040;8.600;2023-10-13T11:02:39;9.27;;;3.45;;
80510;SDS011;69840;53.040;8.600;2023-10-13T11:27:45;5.55;;;2.72;;
80510;SDS011;69840;53.040;8.600;2023-10-13T11:52:50;4.93;;;2.55;;
80510;SDS011;69840;53.040;8.600;2023-10-13T12:17:56;4.45;;;2.60;;
80510;SDS011;69840;53.040;8.600;2023-10-13T13:08:27;8.15;;;3.90;;
80510;SDS011;69840;53.040;8.600;2023-10-13T13:33:47;6.53;;;2.55;;
80510;SDS011;69840;53.040;8.600;2023-10-13T13:58:55;6.97;;;3.83;;
80510;SDS011;69840;53.040;8.600;2023-10-13T14:24:12;9.38;;;2.95;;
80510;SDS011;69840;53.040;8.600;2023-10-13T14:49:21;12.07;;;3.45;;
80510;SDS011;69840;53.040;8.600;2023-10-13T15:14:27;11.80;;;3.75;;
80510;SDS011;69840;53.040;8.600;2023-10-13T15:39:32;9.93;;;4.07;;
80510;SDS011;69840;53.040;8.600;2023-10-13T16:04:38;10.18;;;3.03;;
80510;SDS011;69840;53.040;8.600;2023-10-13T16:29:44;7.60;;;3.72;;
80510;SDS011;69840;53.040;8.600;2023-10-13T16:54:49;13.88;;;3.72;;
80510;SDS011;69840;53.040;8.600;2023-10-13T17:19:55;8.05;;;2.60;;
80510;SDS011;69840;53.040;8.600;2023-10-13T17:45:01;5.97;;;2.20;;
80510;SDS011;69840;53.040;8.600;2023-10-13T18:10:08;6.80;;;3.15;;
80510;SDS011;69840;53.040;8.600;2023-10-13T18:35:23;9.82;;;3.95;;
80510;SDS011;69840;53.040;8.600;2023-10-13T19:00:29;10.82;;;3.80;;
80510;SDS011;69840;53.040;8.600;2023-10-13T19:25:38;11.05;;;3.00;;
80510;SDS011;69840;53.040;8.600;2023-10-13T19:50:44;5.50;;;2.58;;
80510;SDS011;69840;53.040;8.600;2023-10-13T20:15:51;11.13;;;3.35;;
80510;SDS011;69840;53.040;8.600;2023-10-13T20:40:59;7.93;;;4.28;;
80510;SDS011;69840;53.040;8.600;2023-10-13T21:06:06;7.00;;;1.73;;
80510;SDS011;69840;53.040;8.600;2023-10-13T21:31:12;10.10;;;4.53;;
80510;SDS011;69840;53.040;8.600;2023-10-13T21:56:21;10.25;;;4.57;;
80510;SDS011;69840;53.040;8.600;2023-10-13T22:21:29;12.70;;;6.78;;
80510;SDS011;69840;53.040;8.600;2023-10-13T22:46:35;13.10;;;6.38;;
80510;SDS011;69840;53.040;8.600;2023-10-13T23:11:40;12.68;;;6.07;;
80510;SDS011;69840;53.040;8.600;2023-10-13T23:36:46;1.67;;;0.75;;
